1C5 weather

Public forecast

Using degrees Fahrenheit for public forecast. Weather courtesy of forecast.io.

Closest aviation weather report (METAR) to Bolingbrook's Clow International Airport

Closest report is Lewis University Airport, 5.5 nm (10.2 km) SSE. Retrieved 2020/08/13 11:15 UTC (6 minutes ago):

KLOT 131115Z AUTO 05005KT 4SM BR CLR 18/18 A3011 RMK AO2 T01800180

Closest aviation forecast (TAF) to Bolingbrook's Clow International Airport

Closest forecast is Dupage Airport, 13.8 nm (25.5 km) NNW. Retrieved 2020/08/13 06:22 UTC (5 hours ago):

TAF KDPA 130520Z 1306/1406 08008KT P6SM FEW040 SCT250